sensor_id;sensor_type;location;lat;lon;timestamp;pressure;altitude;pressure_sealevel;temperature;humidity
25944;BME280;13742;49.306;8.636;2023-06-22T00:00:21;100398.33;;;24.91;66.07
25944;BME280;13742;49.306;8.636;2023-06-22T00:01:22;100401.59;;;24.90;65.32
25944;BME280;13742;49.306;8.636;2023-06-22T00:02:20;100405.11;;;24.89;64.86
25944;BME280;13742;49.306;8.636;2023-06-22T00:03:21;100410.68;;;24.89;64.72
25944;BME280;13742;49.306;8.636;2023-06-22T00:04:20;100411.80;;;24.89;64.51
25944;BME280;13742;49.306;8.636;2023-06-22T00:05:20;100408.17;;;24.90;64.46
25944;BME280;13742;49.306;8.636;2023-06-22T00:06:20;100405.40;;;24.90;64.67
25944;BME280;13742;49.306;8.636;2023-06-22T00:07:20;100406.51;;;24.91;64.66
25944;BME280;13742;49.306;8.636;2023-06-22T00:08:20;100401.34;;;24.90;64.39
25944;BME280;13742;49.306;8.636;2023-06-22T00:09:20;100402.77;;;24.90;65.00
25944;BME280;13742;49.306;8.636;2023-06-22T00:10:20;100405.06;;;24.90;64.71
25944;BME280;13742;49.306;8.636;2023-06-22T00:11:20;100404.39;;;24.90;64.46
25944;BME280;13742;49.306;8.636;2023-06-22T00:12:20;100406.83;;;24.90;64.33
25944;BME280;13742;49.306;8.636;2023-06-22T00:13:20;100411.65;;;24.90;64.29
25944;BME280;13742;49.306;8.636;2023-06-22T00:14:20;100411.48;;;24.90;64.16
25944;BME280;13742;49.306;8.636;2023-06-22T00:15:20;100405.49;;;24.91;64.43
25944;BME280;13742;49.306;8.636;2023-06-22T00:16:20;100403.70;;;24.90;64.50
25944;BME280;13742;49.306;8.636;2023-06-22T00:17:20;100404.39;;;24.90;64.33
25944;BME280;13742;49.306;8.636;2023-06-22T00:18:20;100398.98;;;24.90;64.46
25944;BME280;13742;49.306;8.636;2023-06-22T00:19:21;100400.16;;;24.90;64.41
25944;BME280;13742;49.306;8.636;2023-06-22T00:20:20;100402.70;;;24.90;64.82
25944;BME280;13742;49.306;8.636;2023-06-22T00:21:20;100403.56;;;24.83;64.64
25944;BME280;13742;49.306;8.636;2023-06-22T00:22:28;100402.55;;;24.80;65.11
25944;BME280;13742;49.306;8.636;2023-06-22T00:23:20;100406.30;;;24.76;65.24
25944;BME280;13742;49.306;8.636;2023-06-22T00:24:20;100410.30;;;24.78;65.09
25944;BME280;13742;49.306;8.636;2023-06-22T00:25:20;100408.11;;;24.78;64.66
25944;BME280;13742;49.306;8.636;2023-06-22T00:26:20;100407.94;;;24.78;64.69
25944;BME280;13742;49.306;8.636;2023-06-22T00:27:20;100408.16;;;24.77;64.72
25944;BME280;13742;49.306;8.636;2023-06-22T00:28:20;100408.14;;;24.76;64.84
25944;BME280;13742;49.306;8.636;2023-06-22T00:29:20;100408.22;;;24.75;64.72
25944;BME280;13742;49.306;8.636;2023-06-22T00:30:20;100410.34;;;24.64;64.66
25944;BME280;13742;49.306;8.636;2023-06-22T00:31:20;100412.90;;;24.58;64.73
25944;BME280;13742;49.306;8.636;2023-06-22T00:32:20;100414.64;;;24.60;64.92
25944;BME280;13742;49.306;8.636;2023-06-22T00:33:20;100414.45;;;24.48;65.39
25944;BME280;13742;49.306;8.636;2023-06-22T00:34:20;100416.06;;;24.43;65.10
25944;BME280;13742;49.306;8.636;2023-06-22T00:35:20;100429.74;;;24.46;64.75
25944;BME280;13742;49.306;8.636;2023-06-22T00:36:20;100434.02;;;24.44;64.99
25944;BME280;13742;49.306;8.636;2023-06-22T00:37:25;100444.02;;;24.46;65.19
25944;BME280;13742;49.306;8.636;2023-06-22T00:38:20;100457.25;;;24.46;64.95
25944;BME280;13742;49.306;8.636;2023-06-22T00:39:20;100472.28;;;24.46;64.84
25944;BME280;13742;49.306;8.636;2023-06-22T00:40:21;100490.14;;;24.43;64.94
25944;BME280;13742;49.306;8.636;2023-06-22T00:41:20;100509.06;;;24.41;65.26
25944;BME280;13742;49.306;8.636;2023-06-22T00:42:20;100535.55;;;24.37;66.13
25944;BME280;13742;49.306;8.636;2023-06-22T00:43:20;100563.52;;;24.35;66.27
25944;BME280;13742;49.306;8.636;2023-06-22T00:44:20;100595.19;;;24.29;66.35
25944;BME280;13742;49.306;8.636;2023-06-22T00:45:22;100620.75;;;24.28;66.25
25944;BME280;13742;49.306;8.636;2023-06-22T00:46:21;100647.54;;;24.24;66.09
25944;BME280;13742;49.306;8.636;2023-06-22T00:47:20;100676.16;;;24.18;66.07
25944;BME280;13742;49.306;8.636;2023-06-22T00:48:20;100695.08;;;24.16;66.05
25944;BME280;13742;49.306;8.636;2023-06-22T00:49:20;100709.76;;;24.15;66.08
25944;BME280;13742;49.306;8.636;2023-06-22T00:50:22;100725.79;;;24.16;66.50
25944;BME280;13742;49.306;8.636;2023-06-22T00:51:24;100732.88;;;24.16;66.67
25944;BME280;13742;49.306;8.636;2023-06-22T00:52:21;100735.32;;;24.13;67.06
25944;BME280;13742;49.306;8.636;2023-06-22T00:53:20;100740.16;;;24.16;67.38
25944;BME280;13742;49.306;8.636;2023-06-22T00:54:24;100726.67;;;24.15;67.74
25944;BME280;13742;49.306;8.636;2023-06-22T00:55:20;100710.13;;;24.16;68.11
25944;BME280;13742;49.306;8.636;2023-06-22T00:56:24;100671.47;;;24.19;67.57
25944;BME280;13742;49.306;8.636;2023-06-22T00:57:20;100621.18;;;24.23;67.66
25944;BME280;13742;49.306;8.636;2023-06-22T00:58:21;100582.01;;;24.26;69.28
25944;BME280;13742;49.306;8.636;2023-06-22T00:59:20;100552.56;;;24.26;70.40
25944;BME280;13742;49.306;8.636;2023-06-22T01:00:20;100527.14;;;24.28;71.74
25944;BME280;13742;49.306;8.636;2023-06-22T01:01:23;100499.73;;;24.26;73.17
25944;BME280;13742;49.306;8.636;2023-06-22T01:02:20;100466.73;;;24.25;75.04
25944;BME280;13742;49.306;8.636;2023-06-22T01:03:20;100437.51;;;24.17;76.67
25944;BME280;13742;49.306;8.636;2023-06-22T01:04:23;100407.95;;;24.12;75.87
25944;BME280;13742;49.306;8.636;2023-06-22T01:05:21;100380.03;;;23.62;77.86
25944;BME280;13742;49.306;8.636;2023-06-22T01:06:22;100349.78;;;23.39;81.04
25944;BME280;13742;49.306;8.636;2023-06-22T01:08:28;100326.88;;;22.96;83.74
25944;BME280;13742;49.306;8.636;2023-06-22T01:09:22;100329.14;;;22.87;84.69
25944;BME280;13742;49.306;8.636;2023-06-22T01:11:26;100341.66;;;22.83;86.18
25944;BME280;13742;49.306;8.636;2023-06-22T01:12:21;100363.39;;;22.87;84.71
25944;BME280;13742;49.306;8.636;2023-06-22T01:14:24;100413.27;;;23.05;84.79
25944;BME280;13742;49.306;8.636;2023-06-22T01:15:25;100441.08;;;23.10;84.41
25944;BME280;13742;49.306;8.636;2023-06-22T01:16:21;100463.57;;;23.14;83.71
25944;BME280;13742;49.306;8.636;2023-06-22T01:17:20;100486.06;;;23.17;82.71
25944;BME280;13742;49.306;8.636;2023-06-22T01:18:20;100508.52;;;23.21;82.44
25944;BME280;13742;49.306;8.636;2023-06-22T01:20:21;100529.10;;;23.25;82.80
25944;BME280;13742;49.306;8.636;2023-06-22T01:21:21;100529.91;;;23.24;83.47
25944;BME280;13742;49.306;8.636;2023-06-22T01:22:20;100531.70;;;23.24;82.76
25944;BME280;13742;49.306;8.636;2023-06-22T01:24:26;100522.89;;;23.29;83.29
25944;BME280;13742;49.306;8.636;2023-06-22T01:25:22;100517.69;;;23.32;83.87
25944;BME280;13742;49.306;8.636;2023-06-22T01:27:28;100516.81;;;23.30;82.58
25944;BME280;13742;49.306;8.636;2023-06-22T01:29:20;100518.80;;;23.32;82.17
25944;BME280;13742;49.306;8.636;2023-06-22T01:30:20;100512.35;;;23.33;83.64
25944;BME280;13742;49.306;8.636;2023-06-22T01:31:22;100512.69;;;23.33;85.23
25944;BME280;13742;49.306;8.636;2023-06-22T01:32:20;100506.28;;;23.34;84.83
25944;BME280;13742;49.306;8.636;2023-06-22T01:33:20;100496.98;;;23.33;84.44
25944;BME280;13742;49.306;8.636;2023-06-22T01:34:20;100493.34;;;23.32;84.54
25944;BME280;13742;49.306;8.636;2023-06-22T01:35:20;100485.22;;;23.28;86.66
25944;BME280;13742;49.306;8.636;2023-06-22T01:36:21;100481.06;;;23.30;87.23
25944;BME280;13742;49.306;8.636;2023-06-22T01:37:20;100475.48;;;23.24;87.10
25944;BME280;13742;49.306;8.636;2023-06-22T01:38:21;100469.47;;;22.95;89.62
25944;BME280;13742;49.306;8.636;2023-06-22T01:39:20;100470.08;;;23.01;89.42
25944;BME280;13742;49.306;8.636;2023-06-22T01:40:20;100466.11;;;23.00;89.01
25944;BME280;13742;49.306;8.636;2023-06-22T01:41:20;100466.86;;;22.89;90.07
25944;BME280;13742;49.306;8.636;2023-06-22T01:42:21;100468.62;;;22.72;91.59
25944;BME280;13742;49.306;8.636;2023-06-22T01:43:21;100469.33;;;22.68;93.13
25944;BME280;13742;49.306;8.636;2023-06-22T01:44:21;100470.05;;;22.66;92.14
25944;BME280;13742;49.306;8.636;2023-06-22T01:45:20;100475.35;;;22.71;90.98
25944;BME280;13742;49.306;8.636;2023-06-22T01:46:20;100478.68;;;22.75;91.92
25944;BME280;13742;49.306;8.636;2023-06-22T01:47:21;100480.97;;;22.77;91.88
25944;BME280;13742;49.306;8.636;2023-06-22T01:48:20;100482.97;;;22.68;93.30
25944;BME280;13742;49.306;8.636;2023-06-22T01:49:20;100478.31;;;22.56;93.56
25944;BME280;13742;49.306;8.636;2023-06-22T01:50:20;100477.97;;;22.56;93.80
25944;BME280;13742;49.306;8.636;2023-06-22T01:51:20;100478.46;;;22.66;92.39
25944;BME280;13742;49.306;8.636;2023-06-22T01:52:21;100477.41;;;22.71;91.19
25944;BME280;13742;49.306;8.636;2023-06-22T01:53:21;100474.23;;;22.73;92.11
25944;BME280;13742;49.306;8.636;2023-06-22T01:54:20;100472.65;;;22.76;90.98
25944;BME280;13742;49.306;8.636;2023-06-22T01:55:20;100469.65;;;22.78;90.72
25944;BME280;13742;49.306;8.636;2023-06-22T01:56:20;100471.33;;;22.80;91.51
25944;BME280;13742;49.306;8.636;2023-06-22T01:57:20;100476.17;;;22.80;90.15
25944;BME280;13742;49.306;8.636;2023-06-22T01:58:21;100474.42;;;22.80;88.97
25944;BME280;13742;49.306;8.636;2023-06-22T01:59:23;100470.41;;;22.81;89.14
25944;BME280;13742;49.306;8.636;2023-06-22T02:00:21;100468.26;;;22.82;88.28
25944;BME280;13742;49.306;8.636;2023-06-22T02:01:22;100472.30;;;22.84;89.67
25944;BME280;13742;49.306;8.636;2023-06-22T02:02:20;100468.27;;;22.76;90.72
25944;BME280;13742;49.306;8.636;2023-06-22T02:03:25;100472.25;;;22.74;92.55
25944;BME280;13742;49.306;8.636;2023-06-22T02:04:21;100477.98;;;22.70;92.32
25944;BME280;13742;49.306;8.636;2023-06-22T02:05:20;100475.65;;;22.59;94.28
25944;BME280;13742;49.306;8.636;2023-06-22T02:06:21;100477.38;;;22.67;94.07
25944;BME280;13742;49.306;8.636;2023-06-22T02:07:20;100482.52;;;22.72;94.30
25944;BME280;13742;49.306;8.636;2023-06-22T02:08:21;100485.65;;;22.75;93.61
25944;BME280;13742;49.306;8.636;2023-06-22T02:09:20;100484.27;;;22.77;92.08
25944;BME280;13742;49.306;8.636;2023-06-22T02:10:20;100491.41;;;22.77;92.16
25944;BME280;13742;49.306;8.636;2023-06-22T02:11:20;100484.94;;;22.76;91.68
25944;BME280;13742;49.306;8.636;2023-06-22T02:12:21;100484.34;;;22.74;91.68
25944;BME280;13742;49.306;8.636;2023-06-22T02:13:20;100485.42;;;22.73;92.10
25944;BME280;13742;49.306;8.636;2023-06-22T02:14:21;100489.83;;;22.75;92.11
25944;BME280;13742;49.306;8.636;2023-06-22T02:15:20;100488.65;;;22.74;91.33
25944;BME280;13742;49.306;8.636;2023-06-22T02:16:20;100491.78;;;22.75;91.06
25944;BME280;13742;49.306;8.636;2023-06-22T02:17:20;100491.78;;;22.75;90.05
25944;BME280;13742;49.306;8.636;2023-06-22T02:18:20;100494.84;;;22.76;90.53
25944;BME280;13742;49.306;8.636;2023-06-22T02:19:23;100492.72;;;22.76;90.65
25944;BME280;13742;49.306;8.636;2023-06-22T02:20:20;100491.98;;;22.74;91.16
25944;BME280;13742;49.306;8.636;2023-06-22T02:21:20;100493.16;;;22.74;88.96
25944;BME280;13742;49.306;8.636;2023-06-22T02:22:20;100493.70;;;22.75;88.42
25944;BME280;13742;49.306;8.636;2023-06-22T02:23:20;100492.12;;;22.75;88.59
25944;BME280;13742;49.306;8.636;2023-06-22T02:24:23;100484.67;;;22.74;88.34
25944;BME280;13742;49.306;8.636;2023-06-22T02:25:21;100479.55;;;22.76;88.21
25944;BME280;13742;49.306;8.636;2023-06-22T02:26:20;100473.42;;;22.77;88.68
25944;BME280;13742;49.306;8.636;2023-06-22T02:27:20;100466.62;;;22.77;88.45
25944;BME280;13742;49.306;8.636;2023-06-22T02:28:20;100464.77;;;22.78;87.99
25944;BME280;13742;49.306;8.636;2023-06-22T02:29:20;100463.68;;;22.81;90.51
25944;BME280;13742;49.306;8.636;2023-06-22T02:30:20;100462.13;;;22.80;88.58
25944;BME280;13742;49.306;8.636;2023-06-22T02:31:20;100464.32;;;22.80;89.77
25944;BME280;13742;49.306;8.636;2023-06-22T02:32:20;100460.55;;;22.78;89.48
25944;BME280;13742;49.306;8.636;2023-06-22T02:33:21;100458.80;;;22.78;88.38
25944;BME280;13742;49.306;8.636;2023-06-22T02:34:21;100458.03;;;22.78;87.71
25944;BME280;13742;49.306;8.636;2023-06-22T02:35:20;100459.67;;;22.79;87.68
25944;BME280;13742;49.306;8.636;2023-06-22T02:36:22;100461.09;;;22.79;88.64
25944;BME280;13742;49.306;8.636;2023-06-22T02:37:20;100461.67;;;22.79;87.67
25944;BME280;13742;49.306;8.636;2023-06-22T02:38:20;100462.73;;;22.80;87.34
25944;BME280;13742;49.306;8.636;2023-06-22T02:39:23;100457.72;;;22.79;88.45
25944;BME280;13742;49.306;8.636;2023-06-22T02:40:20;100458.43;;;22.80;87.41
25944;BME280;13742;49.306;8.636;2023-06-22T02:41:20;100456.84;;;22.80;88.85
25944;BME280;13742;49.306;8.636;2023-06-22T02:42:21;100457.89;;;22.79;88.49
25944;BME280;13742;49.306;8.636;2023-06-22T02:43:20;100452.74;;;22.79;87.15
25944;BME280;13742;49.306;8.636;2023-06-22T02:44:20;100453.28;;;22.79;88.67
25944;BME280;13742;49.306;8.636;2023-06-22T02:45:20;100452.27;;;22.80;87.19
25944;BME280;13742;49.306;8.636;2023-06-22T02:46:20;100453.88;;;22.80;87.52
25944;BME280;13742;49.306;8.636;2023-06-22T02:47:20;100452.16;;;22.79;88.53
25944;BME280;13742;49.306;8.636;2023-06-22T02:48:20;100451.73;;;22.79;87.07
25944;BME280;13742;49.306;8.636;2023-06-22T02:49:20;100451.93;;;22.80;87.42
25944;BME280;13742;49.306;8.636;2023-06-22T02:50:20;100453.62;;;22.79;87.03
25944;BME280;13742;49.306;8.636;2023-06-22T02:51:20;100455.53;;;22.82;88.53
25944;BME280;13742;49.306;8.636;2023-06-22T02:52:20;100455.86;;;22.81;88.57
25944;BME280;13742;49.306;8.636;2023-06-22T02:53:20;100459.38;;;22.80;87.91
25944;BME280;13742;49.306;8.636;2023-06-22T02:54:20;100454.49;;;22.78;88.15
25944;BME280;13742;49.306;8.636;2023-06-22T02:55:20;100455.27;;;22.78;88.12
25944;BME280;13742;49.306;8.636;2023-06-22T02:56:24;100451.97;;;22.78;87.09
25944;BME280;13742;49.306;8.636;2023-06-22T02:57:20;100448.56;;;22.77;87.82
25944;BME280;13742;49.306;8.636;2023-06-22T02:58:21;100448.88;;;22.76;87.74
25944;BME280;13742;49.306;8.636;2023-06-22T02:59:23;100447.84;;;22.75;87.88
25944;BME280;13742;49.306;8.636;2023-06-22T03:00:21;100449.22;;;22.74;87.55
25944;BME280;13742;49.306;8.636;2023-06-22T03:01:24;100448.58;;;22.74;88.28
25944;BME280;13742;49.306;8.636;2023-06-22T03:02:21;100449.05;;;22.74;86.81
25944;BME280;13742;49.306;8.636;2023-06-22T03:03:20;100447.13;;;22.73;86.94
25944;BME280;13742;49.306;8.636;2023-06-22T03:04:20;100446.83;;;22.73;86.88
25944;BME280;13742;49.306;8.636;2023-06-22T03:05:20;100445.68;;;22.74;86.57
25944;BME280;13742;49.306;8.636;2023-06-22T03:06:23;100438.61;;;22.73;88.22
25944;BME280;13742;49.306;8.636;2023-06-22T03:07:20;100433.70;;;22.73;87.58
25944;BME280;13742;49.306;8.636;2023-06-22T03:08:20;100436.16;;;22.72;86.89
25944;BME280;13742;49.306;8.636;2023-06-22T03:09:20;100429.05;;;22.72;87.74
25944;BME280;13742;49.306;8.636;2023-06-22T03:10:20;100430.50;;;22.74;89.28
25944;BME280;13742;49.306;8.636;2023-06-22T03:11:20;100427.23;;;22.72;88.19
25944;BME280;13742;49.306;8.636;2023-06-22T03:12:20;100427.73;;;22.72;87.54
25944;BME280;13742;49.306;8.636;2023-06-22T03:13:20;100427.60;;;22.73;88.69
25944;BME280;13742;49.306;8.636;2023-06-22T03:14:20;100425.81;;;22.73;88.15
25944;BME280;13742;49.306;8.636;2023-06-22T03:15:20;100425.89;;;22.72;87.63
25944;BME280;13742;49.306;8.636;2023-06-22T03:16:20;100422.83;;;22.72;87.63
25944;BME280;13742;49.306;8.636;2023-06-22T03:17:20;100420.20;;;22.72;87.76
25944;BME280;13742;49.306;8.636;2023-06-22T03:18:22;100421.38;;;22.71;86.96
25944;BME280;13742;49.306;8.636;2023-06-22T03:19:21;100421.34;;;22.70;86.71
25944;BME280;13742;49.306;8.636;2023-06-22T03:20:20;100418.98;;;22.71;87.62
25944;BME280;13742;49.306;8.636;2023-06-22T03:21:21;100421.25;;;22.70;87.13
25944;BME280;13742;49.306;8.636;2023-06-22T03:22:20;100420.34;;;22.70;88.05
25944;BME280;13742;49.306;8.636;2023-06-22T03:23:20;100418.22;;;22.69;87.39
25944;BME280;13742;49.306;8.636;2023-06-22T03:24:20;100420.17;;;22.70;87.77
25944;BME280;13742;49.306;8.636;2023-06-22T03:25:20;100420.64;;;22.69;87.20
25944;BME280;13742;49.306;8.636;2023-06-22T03:26:20;100412.59;;;22.68;87.06
25944;BME280;13742;49.306;8.636;2023-06-22T03:27:20;100414.15;;;22.68;87.66
25944;BME280;13742;49.306;8.636;2023-06-22T03:28:20;100413.01;;;22.67;87.24
25944;BME280;13742;49.306;8.636;2023-06-22T03:29:20;100415.73;;;22.66;86.92
25944;BME280;13742;49.306;8.636;2023-06-22T03:30:20;100420.56;;;22.64;86.67
25944;BME280;13742;49.306;8.636;2023-06-22T03:31:21;100418.20;;;22.64;86.36
25944;BME280;13742;49.306;8.636;2023-06-22T03:32:21;100420.77;;;22.62;86.27
25944;BME280;13742;49.306;8.636;2023-06-22T03:33:20;100416.97;;;22.59;86.30
25944;BME280;13742;49.306;8.636;2023-06-22T03:34:20;100416.73;;;22.59;86.81
25944;BME280;13742;49.306;8.636;2023-06-22T03:35:20;100418.69;;;22.58;87.00
25944;BME280;13742;49.306;8.636;2023-06-22T03:36:20;100420.20;;;22.55;86.17
25944;BME280;13742;49.306;8.636;2023-06-22T03:37:20;100425.16;;;22.54;86.06
25944;BME280;13742;49.306;8.636;2023-06-22T03:38:20;100426.07;;;22.53;85.66
25944;BME280;13742;49.306;8.636;2023-06-22T03:39:20;100429.06;;;22.52;86.09
25944;BME280;13742;49.306;8.636;2023-06-22T03:40:20;100426.24;;;22.51;85.76
25944;BME280;13742;49.306;8.636;2023-06-22T03:41:20;100426.21;;;22.50;85.35
25944;BME280;13742;49.306;8.636;2023-06-22T03:42:20;100426.45;;;22.50;85.36
25944;BME280;13742;49.306;8.636;2023-06-22T03:43:20;100428.23;;;22.48;85.62
25944;BME280;13742;49.306;8.636;2023-06-22T03:44:20;100432.17;;;22.48;85.83
25944;BME280;13742;49.306;8.636;2023-06-22T03:45:20;100427.70;;;22.47;85.58
25944;BME280;13742;49.306;8.636;2023-06-22T03:46:20;100424.64;;;22.46;85.77
25944;BME280;13742;49.306;8.636;2023-06-22T03:47:20;100417.20;;;22.44;85.47
25944;BME280;13742;49.306;8.636;2023-06-22T03:48:20;100415.72;;;22.43;85.94
25944;BME280;13742;49.306;8.636;2023-06-22T03:49:20;100414.58;;;22.42;85.74
25944;BME280;13742;49.306;8.636;2023-06-22T03:50:20;100414.52;;;22.40;86.12
25944;BME280;13742;49.306;8.636;2023-06-22T03:51:20;100419.23;;;22.40;86.14
25944;BME280;13742;49.306;8.636;2023-06-22T03:52:23;100420.14;;;22.39;86.23
25944;BME280;13742;49.306;8.636;2023-06-22T03:53:20;100420.64;;;22.39;86.50
25944;BME280;13742;49.306;8.636;2023-06-22T03:54:20;100417.89;;;22.37;86.81
25944;BME280;13742;49.306;8.636;2023-06-22T03:55:20;100419.38;;;22.36;87.23
25944;BME280;13742;49.306;8.636;2023-06-22T03:56:20;100420.85;;;22.35;87.18
25944;BME280;13742;49.306;8.636;2023-06-22T03:57:20;100422.06;;;22.34;87.01
25944;BME280;13742;49.306;8.636;2023-06-22T03:58:20;100424.42;;;22.32;86.62
25944;BME280;13742;49.306;8.636;2023-06-22T03:59:20;100424.26;;;22.32;86.76
25944;BME280;13742;49.306;8.636;2023-06-22T04:00:20;100425.16;;;22.31;86.78
25944;BME280;13742;49.306;8.636;2023-06-22T04:01:20;100426.91;;;22.30;86.57
25944;BME280;13742;49.306;8.636;2023-06-22T04:02:20;100429.68;;;22.28;86.25
25944;BME280;13742;49.306;8.636;2023-06-22T04:03:20;100425.78;;;22.27;86.18
25944;BME280;13742;49.306;8.636;2023-06-22T04:04:20;100430.25;;;22.27;86.30
25944;BME280;13742;49.306;8.636;2023-06-22T04:05:20;100425.48;;;22.25;86.24
25944;BME280;13742;49.306;8.636;2023-06-22T04:06:20;100422.78;;;22.25;86.28
25944;BME280;13742;49.306;8.636;2023-06-22T04:07:20;100420.66;;;22.25;85.89
25944;BME280;13742;49.306;8.636;2023-06-22T04:08:20;100418.31;;;22.24;85.91
25944;BME280;13742;49.306;8.636;2023-06-22T04:09:21;100417.00;;;22.23;85.70
25944;BME280;13742;49.306;8.636;2023-06-22T04:10:20;100417.47;;;22.22;85.92
25944;BME280;13742;49.306;8.636;2023-06-22T04:11:20;100419.25;;;22.22;85.71
25944;BME280;13742;49.306;8.636;2023-06-22T04:12:20;100421.08;;;22.21;85.87
25944;BME280;13742;49.306;8.636;2023-06-22T04:13:20;100420.13;;;22.21;85.75
25944;BME280;13742;49.306;8.636;2023-06-22T04:14:20;100418.85;;;22.21;85.77
25944;BME280;13742;49.306;8.636;2023-06-22T04:15:20;100419.32;;;22.21;85.83
25944;BME280;13742;49.306;8.636;2023-06-22T04:16:20;100413.67;;;22.22;86.19
25944;BME280;13742;49.306;8.636;2023-06-22T04:17:20;100409.56;;;22.21;85.58
25944;BME280;13742;49.306;8.636;2023-06-22T04:18:20;100410.84;;;22.22;85.78
25944;BME280;13742;49.306;8.636;2023-06-22T04:19:20;100410.14;;;22.22;85.91
25944;BME280;13742;49.306;8.636;2023-06-22T04:20:20;100409.91;;;22.21;85.84
25944;BME280;13742;49.306;8.636;2023-06-22T04:21:20;100413.77;;;22.22;85.52
25944;BME280;13742;49.306;8.636;2023-06-22T04:22:20;100411.38;;;22.21;85.77
25944;BME280;13742;49.306;8.636;2023-06-22T04:23:20;100407.98;;;22.22;85.98
25944;BME280;13742;49.306;8.636;2023-06-22T04:24:20;100404.59;;;22.22;85.63
25944;BME280;13742;49.306;8.636;2023-06-22T04:25:20;100401.09;;;22.23;85.75
25944;BME280;13742;49.306;8.636;2023-06-22T04:26:20;100397.31;;;22.23;85.74
25944;BME280;13742;49.306;8.636;2023-06-22T04:27:23;100400.01;;;22.23;85.56
25944;BME280;13742;49.306;8.636;2023-06-22T04:28:20;100397.75;;;22.24;85.84
25944;BME280;13742;49.306;8.636;2023-06-22T04:29:20;100397.69;;;22.24;86.43
25944;BME280;13742;49.306;8.636;2023-06-22T04:30:20;100400.05;;;22.24;86.26
25944;BME280;13742;49.306;8.636;2023-06-22T04:31:20;100400.14;;;22.25;86.12
25944;BME280;13742;49.306;8.636;2023-06-22T04:32:20;100392.13;;;22.24;85.86
25944;BME280;13742;49.306;8.636;2023-06-22T04:33:20;100386.88;;;22.25;86.18
25944;BME280;13742;49.306;8.636;2023-06-22T04:34:20;100386.78;;;22.25;85.89
25944;BME280;13742;49.306;8.636;2023-06-22T04:35:22;100385.44;;;22.25;85.91
25944;BME280;13742;49.306;8.636;2023-06-22T04:36:21;100386.91;;;22.26;85.77
25944;BME280;13742;49.306;8.636;2023-06-22T04:37:23;100387.75;;;22.27;86.89
25944;BME280;13742;49.306;8.636;2023-06-22T04:38:21;100387.69;;;22.27;85.96
25944;BME280;13742;49.306;8.636;2023-06-22T04:39:20;100387.48;;;22.28;85.82
25944;BME280;13742;49.306;8.636;2023-06-22T04:40:21;100388.59;;;22.29;85.71
25944;BME280;13742;49.306;8.636;2023-06-22T04:41:23;100389.88;;;22.30;85.62
25944;BME280;13742;49.306;8.636;2023-06-22T04:42:20;100388.05;;;22.31;85.60
25944;BME280;13742;49.306;8.636;2023-06-22T04:43:20;100387.14;;;22.31;85.70
25944;BME280;13742;49.306;8.636;2023-06-22T04:44:25;100384.82;;;22.32;85.80
25944;BME280;13742;49.306;8.636;2023-06-22T04:45:21;100387.03;;;22.33;85.25
25944;BME280;13742;49.306;8.636;2023-06-22T04:46:20;100394.34;;;22.33;85.94
25944;BME280;13742;49.306;8.636;2023-06-22T04:47:20;100403.42;;;22.33;85.34
25944;BME280;13742;49.306;8.636;2023-06-22T04:48:20;100406.63;;;22.30;86.66
25944;BME280;13742;49.306;8.636;2023-06-22T04:49:20;100400.94;;;22.31;85.57
25944;BME280;13742;49.306;8.636;2023-06-22T04:50:21;100396.19;;;22.33;86.04
25944;BME280;13742;49.306;8.636;2023-06-22T04:51:21;100388.11;;;22.34;86.56
25944;BME280;13742;49.306;8.636;2023-06-22T04:52:20;100382.95;;;22.36;85.98
25944;BME280;13742;49.306;8.636;2023-06-22T04:53:20;100382.69;;;22.36;85.89
25944;BME280;13742;49.306;8.636;2023-06-22T04:54:20;100385.85;;;22.37;85.94
25944;BME280;13742;49.306;8.636;2023-06-22T04:55:20;100383.59;;;22.38;86.26
25944;BME280;13742;49.306;8.636;2023-06-22T04:56:21;100386.22;;;22.39;86.13
25944;BME280;13742;49.306;8.636;2023-06-22T04:57:20;100382.68;;;22.41;86.54
25944;BME280;13742;49.306;8.636;2023-06-22T04:58:21;100383.86;;;22.41;86.44
25944;BME280;13742;49.306;8.636;2023-06-22T04:59:20;100381.23;;;22.40;86.79
25944;BME280;13742;49.306;8.636;2023-06-22T05:00:22;100380.76;;;22.42;86.39
25944;BME280;13742;49.306;8.636;2023-06-22T05:01:22;100383.11;;;22.44;86.03
25944;BME280;13742;49.306;8.636;2023-06-22T05:02:20;100384.36;;;22.44;86.16
25944;BME280;13742;49.306;8.636;2023-06-22T05:03:20;100384.78;;;22.46;85.79
25944;BME280;13742;49.306;8.636;2023-06-22T05:04:21;100381.16;;;22.46;85.70
25944;BME280;13742;49.306;8.636;2023-06-22T05:05:20;100379.78;;;22.45;85.55
25944;BME280;13742;49.306;8.636;2023-06-22T05:06:21;100376.07;;;22.45;85.56
25944;BME280;13742;49.306;8.636;2023-06-22T05:07:20;100375.77;;;22.47;85.96
25944;BME280;13742;49.306;8.636;2023-06-22T05:08:20;100376.00;;;22.48;85.39
25944;BME280;13742;49.306;8.636;2023-06-22T05:09:20;100371.48;;;22.50;85.38
25944;BME280;13742;49.306;8.636;2023-06-22T05:10:20;100369.45;;;22.51;85.61
25944;BME280;13742;49.306;8.636;2023-06-22T05:11:20;100373.72;;;22.53;86.21
25944;BME280;13742;49.306;8.636;2023-06-22T05:12:20;100369.15;;;22.53;85.83
25944;BME280;13742;49.306;8.636;2023-06-22T05:13:21;100371.41;;;22.53;85.10
25944;BME280;13742;49.306;8.636;2023-06-22T05:14:20;100369.66;;;22.53;85.02
25944;BME280;13742;49.306;8.636;2023-06-22T05:15:22;100370.26;;;22.54;84.55
25944;BME280;13742;49.306;8.636;2023-06-22T05:16:26;100372.34;;;22.55;84.37
25944;BME280;13742;49.306;8.636;2023-06-22T05:17:20;100373.24;;;22.57;84.71
25944;BME280;13742;49.306;8.636;2023-06-22T05:18:23;100372.13;;;22.57;85.46
25944;BME280;13742;49.306;8.636;2023-06-22T05:19:20;100371.02;;;22.56;84.66
25944;BME280;13742;49.306;8.636;2023-06-22T05:20:21;100370.41;;;22.58;84.38